createdAt,value
2023-03-15T00:01:51.125Z,47.00
2023-03-15T00:04:18.299Z,35.60
2023-03-15T00:06:45.355Z,26.70
2023-03-15T00:09:12.558Z,33.60
2023-03-15T00:11:39.584Z,31.40
2023-03-15T00:14:06.725Z,34.20
2023-03-15T00:16:34.032Z,24.30
2023-03-15T00:19:01.105Z,33.60
2023-03-15T00:21:31.004Z,29.30
2023-03-15T00:23:58.251Z,40.30
2023-03-15T00:26:25.303Z,41.20
2023-03-15T00:28:52.377Z,36.90
2023-03-15T00:31:22.004Z,41.90
2023-03-15T00:33:53.291Z,32.60
2023-03-15T00:36:24.657Z,44.80
2023-03-15T00:38:53.930Z,31.30
2023-03-15T00:41:21.932Z,24.00
2023-03-15T00:43:49.221Z,43.80
2023-03-15T00:46:17.909Z,41.00
2023-03-15T00:48:49.519Z,42.30
2023-03-15T00:51:20.973Z,43.20
2023-03-15T00:53:49.717Z,37.00
2023-03-15T00:56:23.227Z,40.10
2023-03-15T00:58:54.171Z,47.40
2023-03-15T01:01:28.018Z,52.70
2023-03-15T01:03:55.375Z,42.70
2023-03-15T01:06:28.165Z,33.70
2023-03-15T01:08:56.196Z,29.80
2023-03-15T01:11:26.520Z,30.30
2023-03-15T01:13:56.052Z,30.40
2023-03-15T01:16:24.299Z,21.00
2023-03-15T01:18:51.893Z,24.30
2023-03-15T01:21:21.704Z,24.80
2023-03-15T01:23:49.482Z,37.80
2023-03-15T01:26:17.509Z,27.10
2023-03-15T01:28:44.529Z,22.00
2023-03-15T01:31:20.790Z,28.10
2023-03-15T01:33:47.956Z,33.80
2023-03-15T01:36:16.341Z,19.10
2023-03-15T01:38:43.922Z,24.10
2023-03-15T01:41:13.089Z,30.30
2023-03-15T01:43:46.691Z,39.10
2023-03-15T01:46:22.955Z,33.60
2023-03-15T01:49:06.233Z,30.30
2023-03-15T01:51:54.972Z,29.30
2023-03-15T01:54:35.812Z,27.90
2023-03-15T01:57:09.247Z,25.40
2023-03-15T01:59:44.417Z,30.60
2023-03-15T02:02:14.871Z,25.20
2023-03-15T02:04:52.415Z,20.70
2023-03-15T02:07:23.838Z,19.30
2023-03-15T02:10:14.158Z,20.50
2023-03-15T02:12:46.577Z,33.00
2023-03-15T02:15:15.797Z,24.60
2023-03-15T02:17:45.689Z,34.80
2023-03-15T02:20:46.640Z,47.30
2023-03-15T02:23:17.507Z,38.90
2023-03-15T02:26:02.819Z,28.50
2023-03-15T02:28:30.487Z,22.60
2023-03-15T02:30:58.044Z,29.80
2023-03-15T02:33:31.076Z,30.20
2023-03-15T02:36:09.433Z,29.20
2023-03-15T02:38:37.130Z,32.70
2023-03-15T02:41:05.486Z,22.60
2023-03-15T02:43:36.106Z,37.70
2023-03-15T02:46:04.634Z,46.20
2023-03-15T02:48:34.232Z,35.10
2023-03-15T02:51:01.719Z,19.50
2023-03-15T02:53:31.014Z,31.60
2023-03-15T02:56:00.785Z,32.30
2023-03-15T02:58:28.964Z,24.10
2023-03-15T03:00:57.495Z,29.70
2023-03-15T03:03:24.440Z,29.90
2023-03-15T03:05:51.491Z,34.70
2023-03-15T03:08:18.483Z,31.20
2023-03-15T03:10:45.511Z,24.30
2023-03-15T03:13:14.324Z,18.90
2023-03-15T03:15:45.347Z,27.90
2023-03-15T03:18:13.243Z,32.70
2023-03-15T03:20:40.234Z,29.80
2023-03-15T03:23:07.200Z,30.40
2023-03-15T03:25:36.200Z,26.00
2023-03-15T03:28:03.772Z,25.00
2023-03-15T03:30:31.047Z,29.00
2023-03-15T03:32:58.085Z,20.50
2023-03-15T03:35:25.344Z,17.80
2023-03-15T03:37:53.241Z,18.60
2023-03-15T03:40:23.220Z,29.80
2023-03-15T03:42:50.251Z,21.60
2023-03-15T03:45:18.838Z,31.60
2023-03-15T03:47:47.536Z,27.30
2023-03-15T03:50:14.665Z,33.30
2023-03-15T03:52:43.341Z,31.20
2023-03-15T03:55:13.798Z,35.20
2023-03-15T03:57:42.200Z,31.60
2023-03-15T04:00:16.302Z,32.30
2023-03-15T04:02:43.883Z,41.10
2023-03-15T04:05:13.257Z,37.70
2023-03-15T04:07:41.022Z,37.10
2023-03-15T04:10:09.353Z,24.00
2023-03-15T04:12:36.879Z,67.10
2023-03-15T04:15:04.591Z,61.80
2023-03-15T04:17:33.298Z,31.60
2023-03-15T04:20:06.464Z,25.20
2023-03-15T04:22:36.504Z,30.30
2023-03-15T04:25:14.112Z,32.30
2023-03-15T04:28:03.480Z,33.70
2023-03-15T04:30:50.488Z,26.00
2023-03-15T04:33:40.704Z,32.70
2023-03-15T04:36:31.048Z,32.60
2023-03-15T04:39:07.418Z,17.60
2023-03-15T04:41:57.590Z,27.10
2023-03-15T04:44:53.404Z,23.00
2023-03-15T04:47:35.336Z,30.70
2023-03-15T04:50:22.443Z,24.10
2023-03-15T04:52:59.174Z,27.70
2023-03-15T04:55:39.973Z,13.00
2023-03-15T04:58:16.578Z,23.90
2023-03-15T05:00:49.639Z,34.30
2023-03-15T05:03:36.833Z,34.70
2023-03-15T05:06:24.636Z,35.30
2023-03-15T05:09:18.947Z,27.70
2023-03-15T05:12:16.381Z,29.10
2023-03-15T05:14:46.185Z,29.30
2023-03-15T05:17:45.928Z,31.70
2023-03-15T05:20:31.604Z,26.60
2023-03-15T05:23:28.163Z,23.10
2023-03-15T05:26:34.366Z,28.00
2023-03-15T05:29:13.546Z,27.00
2023-03-15T05:32:15.629Z,30.70
2023-03-15T05:38:03.182Z,44.90
2023-03-15T05:40:34.416Z,38.80
2023-03-15T05:43:13.088Z,35.30
2023-03-15T05:46:03.269Z,26.60
2023-03-15T05:48:33.257Z,25.60
2023-03-15T05:51:12.952Z,30.40
2023-03-15T05:54:03.173Z,35.50
2023-03-15T05:56:43.178Z,27.40
2023-03-15T05:59:29.134Z,27.10
2023-03-15T06:02:19.193Z,34.40
2023-03-15T06:04:52.437Z,34.50
2023-03-15T06:07:22.184Z,35.30
2023-03-15T06:09:49.484Z,45.50
2023-03-15T06:12:19.540Z,17.80
2023-03-15T06:14:46.626Z,33.50
2023-03-15T06:17:13.706Z,30.60
2023-03-15T06:19:43.406Z,27.40
2023-03-15T06:22:10.634Z,22.00
2023-03-15T06:24:49.378Z,34.30
2023-03-15T06:27:16.425Z,38.90
2023-03-15T06:29:43.464Z,28.50
2023-03-15T06:32:10.945Z,28.80
2023-03-15T06:34:38.881Z,23.70
2023-03-15T06:37:06.290Z,34.90
2023-03-15T06:39:34.092Z,26.60
2023-03-15T06:42:04.375Z,29.80
2023-03-15T06:44:32.299Z,24.00
2023-03-15T06:47:03.799Z,22.70
2023-03-15T06:49:32.016Z,29.50
2023-03-15T06:51:59.885Z,33.70
2023-03-15T06:54:29.128Z,28.90
2023-03-15T06:56:57.200Z,32.50
2023-03-15T06:59:24.426Z,23.70
2023-03-15T07:01:58.138Z,22.60
2023-03-15T07:04:28.169Z,20.80
2023-03-15T07:06:55.457Z,31.60
2023-03-15T07:09:22.505Z,22.10
2023-03-15T07:11:49.637Z,28.00
2023-03-15T07:14:16.846Z,23.00
2023-03-15T07:16:44.063Z,38.10
2023-03-15T07:19:11.097Z,41.10
2023-03-15T07:21:38.208Z,26.20
2023-03-15T07:24:05.663Z,41.90
2023-03-15T07:26:32.837Z,33.40
2023-03-15T07:29:00.092Z,39.20
2023-03-15T07:31:29.860Z,29.30
2023-03-15T07:33:57.084Z,40.30
2023-03-15T07:36:24.111Z,37.50
2023-03-15T07:38:51.234Z,32.20
2023-03-15T07:41:18.369Z,27.20
2023-03-15T07:43:59.635Z,39.10
2023-03-15T07:46:26.814Z,28.30
2023-03-15T07:48:54.156Z,32.50
2023-03-15T07:51:21.412Z,28.50
2023-03-15T07:53:48.666Z,33.10
2023-03-15T07:56:15.781Z,37.00
2023-03-15T07:58:43.072Z,37.50
2023-03-15T08:01:13.110Z,27.10
2023-03-15T08:03:43.871Z,22.40
2023-03-15T08:06:10.999Z,54.40
2023-03-15T08:08:54.897Z,38.20
2023-03-15T08:11:22.050Z,35.20
2023-03-15T08:13:49.420Z,36.00
2023-03-15T08:16:16.571Z,36.00
2023-03-15T08:18:43.988Z,35.80
2023-03-15T08:21:11.681Z,32.20
2023-03-15T08:23:39.091Z,19.70
2023-03-15T08:26:06.381Z,24.30
2023-03-15T08:28:36.657Z,36.80
2023-03-15T08:31:15.060Z,38.10
2023-03-15T08:33:43.954Z,40.80
2023-03-15T08:36:11.074Z,39.90
2023-03-15T08:38:41.530Z,35.20
2023-03-15T08:41:13.063Z,35.70
2023-03-15T08:43:43.047Z,36.00
2023-03-15T08:48:40.595Z,31.20
2023-03-15T08:51:08.541Z,17.70
2023-03-15T08:53:35.737Z,18.30
2023-03-15T08:56:05.580Z,18.60
2023-03-15T08:58:32.742Z,34.80
2023-03-15T09:01:04.644Z,18.70
2023-03-15T09:03:32.382Z,17.70
2023-03-15T09:06:02.805Z,24.20
2023-03-15T09:08:32.871Z,22.50
2023-03-15T09:11:01.290Z,23.30
2023-03-15T09:13:28.661Z,28.30
2023-03-15T09:15:56.936Z,27.40
2023-03-15T09:18:27.360Z,25.50
2023-03-15T09:20:54.780Z,25.70
2023-03-15T09:23:23.570Z,19.60
2023-03-15T09:25:54.116Z,25.20
2023-03-15T09:28:25.366Z,22.90
2023-03-15T09:30:56.298Z,28.30
2023-03-15T09:33:24.118Z,30.60
2023-03-15T09:35:54.230Z,27.50
2023-03-15T09:38:41.230Z,20.50
2023-03-15T09:41:22.450Z,18.20
2023-03-15T09:44:12.158Z,24.90
2023-03-15T09:46:52.122Z,17.10
2023-03-15T09:49:45.320Z,28.00
2023-03-15T09:52:31.307Z,24.60
2023-03-15T09:55:19.548Z,17.40
2023-03-15T09:57:59.257Z,16.50
2023-03-15T10:00:32.359Z,31.30
2023-03-15T10:03:08.268Z,21.70
2023-03-15T10:05:51.748Z,21.30
2023-03-15T10:08:21.922Z,23.80
2023-03-15T10:11:21.346Z,41.50
2023-03-15T10:14:24.919Z,27.60
2023-03-15T10:16:55.353Z,34.20
2023-03-15T10:19:27.902Z,31.10
2023-03-15T10:22:14.424Z,30.00
2023-03-15T10:25:01.752Z,22.50
2023-03-15T10:27:38.637Z,29.60
2023-03-15T10:30:21.039Z,27.00
2023-03-15T10:33:08.408Z,18.20
2023-03-15T10:35:35.584Z,44.70
2023-03-15T10:38:25.469Z,37.10
2023-03-15T10:41:00.433Z,33.00
2023-03-15T10:43:31.835Z,45.00
2023-03-15T10:46:03.145Z,46.30
2023-03-15T10:48:38.977Z,36.20
2023-03-15T10:51:28.440Z,34.20
2023-03-15T10:54:04.160Z,44.20
2023-03-15T10:56:37.555Z,39.70
2023-03-15T10:59:17.940Z,51.50
2023-03-15T11:01:48.297Z,69.10
2023-03-15T11:04:35.296Z,47.60
2023-03-15T11:07:08.498Z,47.20
2023-03-15T11:20:17.388Z,20.80
2023-03-15T11:28:36.981Z,18.30
2023-03-15T11:40:08.739Z,21.80
2023-03-15T11:43:24.037Z,20.90
2023-03-15T11:46:22.276Z,30.50
2023-03-15T11:48:57.314Z,24.80
2023-03-15T11:51:38.857Z,21.90
2023-03-15T11:54:19.999Z,21.00
2023-03-15T11:56:53.367Z,28.40
2023-03-15T11:59:32.263Z,21.50
2023-03-15T12:02:30.802Z,15.20
2023-03-15T12:05:09.144Z,13.10
2023-03-15T12:08:15.234Z,13.40
2023-03-15T12:10:51.972Z,17.50
2023-03-15T12:13:26.079Z,19.00
2023-03-15T12:15:55.743Z,10.70
2023-03-15T12:18:44.121Z,15.10
2023-03-15T12:21:33.103Z,22.00
2023-03-15T12:24:05.949Z,15.10
2023-03-15T12:26:36.293Z,15.40
2023-03-15T12:29:25.142Z,15.20
2023-03-15T12:32:08.323Z,20.10
2023-03-15T12:35:19.695Z,17.10
2023-03-15T12:37:58.888Z,15.80
2023-03-15T12:40:57.894Z,13.60
2023-03-15T12:43:52.995Z,13.90
2023-03-15T12:46:46.970Z,15.20
2023-03-15T12:49:24.417Z,25.00
2023-03-15T12:52:19.159Z,19.40
2023-03-15T12:55:23.785Z,19.70
2023-03-15T13:00:54.047Z,11.90
2023-03-15T13:03:25.250Z,16.60
2023-03-15T13:06:24.237Z,23.60
2023-03-15T13:09:14.288Z,16.30
2023-03-15T13:12:00.774Z,16.70
2023-03-15T13:15:03.519Z,28.50
2023-03-15T13:17:41.112Z,17.00
2023-03-15T13:20:27.982Z,15.10
2023-03-15T13:23:36.737Z,15.10
2023-03-15T13:26:38.407Z,15.60
2023-03-15T13:29:06.636Z,17.00
2023-03-15T13:31:35.959Z,15.60
2023-03-15T13:34:25.030Z,16.80
2023-03-15T13:37:04.511Z,20.60
2023-03-15T13:39:38.841Z,12.60
2023-03-15T13:42:25.128Z,24.20
2023-03-15T13:45:15.098Z,12.80
2023-03-15T13:48:05.511Z,18.40
2023-03-15T13:50:32.855Z,15.10
2023-03-15T13:53:01.857Z,19.10
2023-03-15T13:55:38.269Z,20.60
2023-03-15T13:58:11.319Z,20.40
2023-03-15T14:00:38.593Z,25.50
2023-03-15T14:03:16.138Z,23.90
2023-03-15T14:05:48.227Z,31.00
2023-03-15T14:08:58.174Z,24.80
2023-03-15T14:11:37.026Z,15.60
2023-03-15T14:14:25.601Z,10.50
2023-03-15T14:17:05.357Z,19.30
2023-03-15T14:19:36.420Z,20.30
2023-03-15T14:22:19.221Z,14.80
2023-03-15T14:24:52.589Z,18.80
2023-03-15T14:27:30.173Z,21.00
2023-03-15T14:30:00.307Z,23.80
2023-03-15T14:32:53.690Z,17.60
2023-03-15T14:35:32.368Z,23.90
2023-03-15T14:38:18.774Z,19.90
2023-03-15T14:40:49.648Z,19.50
2023-03-15T14:43:20.360Z,25.00
2023-03-15T14:45:50.686Z,18.50
2023-03-15T14:48:31.548Z,29.10
2023-03-15T14:50:59.272Z,20.60
2023-03-15T14:53:37.699Z,22.50
2023-03-15T14:56:05.159Z,17.70
2023-03-15T14:58:35.892Z,37.30
2023-03-15T15:03:52.602Z,22.60
2023-03-15T15:06:43.476Z,21.50
2023-03-15T15:09:16.343Z,24.90
2023-03-15T15:11:43.474Z,16.10
2023-03-15T15:14:13.967Z,19.70
2023-03-15T15:16:47.270Z,17.40
2023-03-15T15:19:23.865Z,17.70
2023-03-15T15:24:44.401Z,18.70
2023-03-15T15:27:16.458Z,12.10
2023-03-15T15:30:00.247Z,21.70
2023-03-15T15:32:33.857Z,13.30
2023-03-15T15:35:03.154Z,14.60
2023-03-15T15:37:40.222Z,18.10
2023-03-15T15:40:15.666Z,13.00
2023-03-15T15:42:50.269Z,19.70
2023-03-15T15:45:21.120Z,10.20
2023-03-15T15:47:53.696Z,17.70
2023-03-15T15:50:26.921Z,16.50
2023-03-15T15:53:01.610Z,9.40
2023-03-15T15:55:34.924Z,14.30
2023-03-15T15:58:06.284Z,13.90
2023-03-15T16:00:39.034Z,20.10
2023-03-15T16:03:18.652Z,8.60
2023-03-15T16:05:50.074Z,14.20
2023-03-15T16:08:25.809Z,20.90
2023-03-15T16:10:57.545Z,10.80
2023-03-15T16:13:24.586Z,16.60
2023-03-15T16:15:52.515Z,13.70
2023-03-15T16:18:35.344Z,11.80
2023-03-15T16:21:04.969Z,10.10
2023-03-15T16:23:36.092Z,15.50
2023-03-15T16:26:11.765Z,9.10
2023-03-15T16:28:39.896Z,8.80
2023-03-15T16:31:07.222Z,9.30
2023-03-15T16:33:37.415Z,11.60
2023-03-15T16:36:16.239Z,11.30
2023-03-15T16:38:43.779Z,18.50
2023-03-15T16:41:14.480Z,10.80
2023-03-15T16:43:42.895Z,19.10
2023-03-15T16:46:13.516Z,13.40
2023-03-15T16:48:41.364Z,14.30
2023-03-15T16:51:11.209Z,14.30
2023-03-15T16:53:42.110Z,15.50
2023-03-15T16:56:12.814Z,14.80
2023-03-15T16:58:42.231Z,12.30
2023-03-15T17:01:12.556Z,13.00
2023-03-15T17:03:39.788Z,11.50
2023-03-15T17:06:19.618Z,13.80
2023-03-15T17:08:51.517Z,13.50
2023-03-15T17:11:22.262Z,13.80
2023-03-15T17:13:49.685Z,12.40
2023-03-15T17:16:17.135Z,16.00
2023-03-15T17:18:48.385Z,13.70
2023-03-15T17:21:20.574Z,10.00
2023-03-15T17:23:49.337Z,11.90
2023-03-15T17:26:22.017Z,10.90
2023-03-15T17:31:25.383Z,11.90
2023-03-15T17:33:53.336Z,14.50
2023-03-15T17:36:25.202Z,15.00
2023-03-15T17:38:54.368Z,14.40
2023-03-15T17:41:30.447Z,14.30
2023-03-15T17:43:58.413Z,12.00
2023-03-15T17:46:29.728Z,8.40
2023-03-15T17:48:59.070Z,9.70
2023-03-15T17:51:32.560Z,11.20
2023-03-15T17:54:00.740Z,11.70
2023-03-15T17:56:29.114Z,10.20
2023-03-15T17:58:56.560Z,14.20
2023-03-15T18:01:27.086Z,15.60
2023-03-15T18:03:57.448Z,10.60
2023-03-15T18:06:25.779Z,12.20
2023-03-15T18:08:53.158Z,11.20
2023-03-15T18:11:26.187Z,9.90
2023-03-15T18:13:54.470Z,8.30
2023-03-15T18:16:28.104Z,9.40
2023-03-15T18:18:57.104Z,10.60
2023-03-15T18:21:27.027Z,9.80
2023-03-15T18:23:54.417Z,9.30
2023-03-15T18:26:22.384Z,6.30
2023-03-15T18:28:51.129Z,8.30
2023-03-15T18:31:27.299Z,5.50
2023-03-15T18:33:58.239Z,5.70
2023-03-15T18:36:25.710Z,6.60
2023-03-15T18:38:53.047Z,10.00
2023-03-15T18:41:24.133Z,8.30
2023-03-15T18:43:52.216Z,6.90
2023-03-15T18:46:23.722Z,6.80
2023-03-15T18:48:53.141Z,10.30
2023-03-15T18:51:30.525Z,8.60
2023-03-15T18:54:05.374Z,7.80
2023-03-15T18:56:36.826Z,8.10
2023-03-15T18:59:04.525Z,7.20
2023-03-15T19:01:32.064Z,7.10
2023-03-15T19:03:59.591Z,6.90
2023-03-15T19:06:27.152Z,6.60
2023-03-15T19:08:57.775Z,6.40
2023-03-15T19:11:26.495Z,6.90
2023-03-15T19:13:53.795Z,7.10
2023-03-15T19:16:24.908Z,7.30
2023-03-15T19:18:52.304Z,9.70
2023-03-15T19:21:19.633Z,9.50
2023-03-15T19:23:48.371Z,6.40
2023-03-15T19:26:18.481Z,7.90
2023-03-15T19:28:47.846Z,7.40
2023-03-15T19:31:15.324Z,5.20
2023-03-15T19:33:45.699Z,6.80
2023-03-15T19:36:15.270Z,4.70
2023-03-15T19:38:44.440Z,5.80
2023-03-15T19:41:24.901Z,7.70
2023-03-15T19:44:04.013Z,6.20
2023-03-15T19:46:34.131Z,6.60
2023-03-15T19:49:04.358Z,9.40
2023-03-15T19:51:34.312Z,6.20
2023-03-15T19:54:02.595Z,7.70
2023-03-15T19:56:29.616Z,5.80
2023-03-15T19:58:56.926Z,9.50
2023-03-15T20:01:24.358Z,5.90
2023-03-15T20:03:51.509Z,6.40
2023-03-15T20:06:18.780Z,5.90
2023-03-15T20:08:46.127Z,6.40
2023-03-15T20:11:19.488Z,6.40
2023-03-15T20:13:47.007Z,5.80
2023-03-15T20:16:16.812Z,7.00
2023-03-15T20:18:44.096Z,4.20
2023-03-15T20:21:11.013Z,3.20
2023-03-15T20:23:37.974Z,5.30
2023-03-15T20:26:13.201Z,4.30
2023-03-15T20:28:41.455Z,4.20
2023-03-15T20:31:15.102Z,2.50
2023-03-15T20:33:43.728Z,4.50
2023-03-15T20:36:10.981Z,6.30
2023-03-15T20:38:45.225Z,5.10
2023-03-15T20:41:14.936Z,4.90
2023-03-15T20:43:42.569Z,4.20
2023-03-15T20:46:11.648Z,4.40
2023-03-15T20:48:38.911Z,4.80
2023-03-15T20:51:06.041Z,3.10
2023-03-15T20:53:35.254Z,4.80
2023-03-15T20:56:04.391Z,5.20
2023-03-15T20:58:32.339Z,5.30
2023-03-15T21:01:10.492Z,6.00
2023-03-15T21:03:37.805Z,6.40
2023-03-15T21:06:17.466Z,4.50
2023-03-15T21:08:45.466Z,6.10
2023-03-15T21:11:12.583Z,4.10
2023-03-15T21:13:39.571Z,2.70
2023-03-15T21:16:06.859Z,3.80
2023-03-15T21:18:35.559Z,5.10
2023-03-15T21:21:07.360Z,2.30
2023-03-15T21:23:35.192Z,4.10
2023-03-15T21:26:07.193Z,3.20
2023-03-15T21:28:34.174Z,3.60
2023-03-15T21:31:01.331Z,2.70
2023-03-15T21:33:30.723Z,3.50
2023-03-15T21:35:58.931Z,5.10
2023-03-15T21:38:27.830Z,3.80
2023-03-15T21:40:59.014Z,3.60
2023-03-15T21:43:28.330Z,5.30
2023-03-15T21:45:59.607Z,4.50
2023-03-15T21:48:27.818Z,3.70
2023-03-15T21:50:54.998Z,3.10
2023-03-15T21:53:22.254Z,3.00
2023-03-15T21:55:49.350Z,4.10
2023-03-15T21:58:16.331Z,3.60
2023-03-15T22:00:43.286Z,3.20
2023-03-15T22:03:13.051Z,4.20
2023-03-15T22:05:40.024Z,3.30
2023-03-15T22:08:06.960Z,2.90
2023-03-15T22:10:33.816Z,4.10
2023-03-15T22:13:00.864Z,3.20
2023-03-15T22:15:27.675Z,3.00
2023-03-15T22:17:54.568Z,5.10
2023-03-15T22:20:21.802Z,2.90
2023-03-15T22:22:48.658Z,1.50
2023-03-15T22:25:16.560Z,2.70
2023-03-15T22:27:43.810Z,4.20
2023-03-15T22:30:13.738Z,3.00
2023-03-15T22:32:44.561Z,2.90
2023-03-15T22:35:13.599Z,2.60
2023-03-15T22:37:40.638Z,3.30
2023-03-15T22:40:12.400Z,4.10
2023-03-15T22:42:40.769Z,4.80
2023-03-15T22:45:08.449Z,3.00
2023-03-15T22:47:35.464Z,1.80
2023-03-15T22:50:02.895Z,3.20
2023-03-15T22:52:29.878Z,3.30
2023-03-15T22:54:56.889Z,2.50
2023-03-15T22:57:23.940Z,1.40
2023-03-15T22:59:51.312Z,2.80
2023-03-15T23:02:18.556Z,2.90
2023-03-15T23:04:46.038Z,3.70
2023-03-15T23:07:13.239Z,3.40
2023-03-15T23:09:40.244Z,3.80
2023-03-15T23:12:07.556Z,3.50
2023-03-15T23:14:35.092Z,2.60
2023-03-15T23:17:02.766Z,3.00
2023-03-15T23:19:34.441Z,2.40
2023-03-15T23:22:03.901Z,2.70
2023-03-15T23:24:34.577Z,3.10
2023-03-15T23:27:05.293Z,2.80
2023-03-15T23:29:40.725Z,1.90
2023-03-15T23:32:14.277Z,3.20
2023-03-15T23:34:42.521Z,3.50
2023-03-15T23:37:10.066Z,1.30
2023-03-15T23:39:37.191Z,1.70
2023-03-15T23:42:04.739Z,2.20
2023-03-15T23:44:32.847Z,6.60
2023-03-15T23:47:02.285Z,0.90
2023-03-15T23:49:29.290Z,1.20
2023-03-15T23:51:56.357Z,0.80
2023-03-15T23:54:23.712Z,2.20
2023-03-15T23:56:50.878Z,1.50
2023-03-15T23:59:17.936Z,2.60
